createdAt,value
2018-07-21T00:05:13.705Z,80
2018-07-21T00:05:24.408Z,80
2018-07-21T00:06:23.080Z,80
2018-07-21T00:07:23.103Z,80
2018-07-21T00:08:23.207Z,79
2018-07-21T00:09:23.037Z,79
2018-07-21T00:10:23.030Z,79
2018-07-21T00:11:23.108Z,78
2018-07-21T00:12:23.079Z,78
2018-07-21T00:13:23.081Z,78
2018-07-21T00:14:26.663Z,78
2018-07-21T00:15:23.704Z,78
2018-07-21T00:16:23.078Z,78
2018-07-21T00:17:22.994Z,78
2018-07-21T00:18:23.081Z,77
2018-07-21T00:19:23.037Z,77
2018-07-21T00:21:23.729Z,77
2018-07-21T00:22:23.151Z,77
2018-07-21T00:23:23.093Z,77
2018-07-21T00:24:23.072Z,76
2018-07-21T00:26:22.995Z,76
2018-07-21T00:27:23.127Z,76
2018-07-21T00:28:23.022Z,76
2018-07-21T00:29:23.033Z,76
2018-07-21T00:30:23.012Z,76
2018-07-21T00:31:23.018Z,77
2018-07-21T00:32:25.104Z,77
2018-07-21T00:33:23.183Z,77
2018-07-21T00:34:23.200Z,78
2018-07-21T00:35:24.293Z,78
2018-07-21T00:36:23.133Z,78
2018-07-21T00:37:23.217Z,78
2018-07-21T00:38:23.741Z,78
2018-07-21T00:39:23.145Z,78
2018-07-21T00:40:23.154Z,78
2018-07-21T00:41:23.150Z,79
2018-07-21T00:45:23.125Z,79
2018-07-21T00:46:23.176Z,80
2018-07-21T00:47:23.087Z,80
2018-07-21T00:48:23.042Z,80
2018-07-21T00:49:24.395Z,80
2018-07-21T00:50:24.442Z,80
2018-07-21T00:51:23.252Z,80
2018-07-21T00:52:23.221Z,80
2018-07-21T00:53:27.264Z,80
2018-07-21T00:54:23.730Z,80
2018-07-21T00:55:23.700Z,80
2018-07-21T00:56:23.248Z,80
2018-07-21T00:57:24.280Z,80
2018-07-21T01:00:23.182Z,81
2018-07-21T01:01:24.514Z,81
2018-07-21T01:02:23.268Z,81
2018-07-21T01:03:23.173Z,81
2018-07-21T01:04:23.280Z,82
2018-07-21T01:05:23.745Z,82
2018-07-21T01:09:23.251Z,81
2018-07-21T01:11:26.376Z,81
2018-07-21T01:12:23.332Z,81
2018-07-21T01:13:25.163Z,81
2018-07-21T01:14:23.271Z,80
2018-07-21T01:15:30.632Z,80
2018-07-21T01:16:23.250Z,80
2018-07-21T01:17:23.912Z,80
2018-07-21T01:18:23.208Z,80
2018-07-21T01:19:23.375Z,80
2018-07-21T01:20:23.264Z,80
2018-07-21T01:21:23.269Z,80
2018-07-21T01:22:23.810Z,80
2018-07-21T01:23:23.291Z,80
2018-07-21T01:24:23.280Z,80
2018-07-21T01:25:23.248Z,82
2018-07-21T01:26:23.244Z,82
2018-07-21T01:27:23.786Z,83
2018-07-21T01:28:23.222Z,83
2018-07-21T01:29:23.954Z,83
2018-07-21T01:41:41.427Z,83
2018-07-21T01:43:02.587Z,83
2018-07-21T01:43:44.890Z,83
2018-07-21T01:44:41.567Z,83
2018-07-21T01:45:42.023Z,83
2018-07-21T01:47:41.447Z,83
2018-07-21T01:48:41.485Z,83
2018-07-21T01:52:43.163Z,84
2018-07-21T01:53:42.472Z,84
2018-07-21T01:54:41.606Z,84
2018-07-21T01:55:42.207Z,83
2018-07-21T01:57:44.199Z,84
2018-07-21T01:58:45.834Z,84
2018-07-21T02:00:36.076Z,84
2018-07-21T02:00:49.624Z,84
2018-07-21T02:01:46.803Z,84
2018-07-21T02:02:55.891Z,84
2018-07-21T02:04:01.154Z,84
2018-07-21T02:04:46.101Z,84
2018-07-21T02:05:45.333Z,84
2018-07-21T02:07:18.191Z,84
2018-07-21T02:09:56.233Z,85
2018-07-21T02:11:56.058Z,85
2018-07-21T02:12:56.170Z,85
2018-07-21T02:13:55.577Z,85
2018-07-21T02:14:55.526Z,85
2018-07-21T02:15:55.514Z,85
2018-07-21T02:16:55.622Z,85
2018-07-21T02:17:55.504Z,85
2018-07-21T02:18:56.176Z,85
2018-07-21T02:19:56.564Z,85
2018-07-21T02:20:55.531Z,84
2018-07-21T02:21:55.512Z,84
2018-07-21T02:22:56.375Z,84
2018-07-21T02:23:55.584Z,84
2018-07-21T02:24:56.763Z,84
2018-07-21T02:25:55.651Z,84
2018-07-21T02:26:55.623Z,84
2018-07-21T02:28:56.378Z,83
2018-07-21T02:29:55.589Z,83
2018-07-21T02:30:55.538Z,83
2018-07-21T02:32:56.698Z,83
2018-07-21T02:33:55.625Z,83
2018-07-21T02:34:55.700Z,83
2018-07-21T02:35:55.555Z,82
2018-07-21T02:36:55.641Z,82
2018-07-21T02:37:55.700Z,82
2018-07-21T02:39:07.137Z,82
2018-07-21T02:39:56.194Z,82
2018-07-21T02:40:55.690Z,82
2018-07-21T02:42:56.253Z,82
2018-07-21T02:43:55.648Z,82
2018-07-21T02:44:55.646Z,82
2018-07-21T02:45:55.631Z,83
2018-07-21T02:46:55.572Z,83
2018-07-21T02:47:55.638Z,83
2018-07-21T02:53:52.490Z,83
2018-07-21T02:55:04.894Z,83
2018-07-21T02:56:03.897Z,83
2018-07-21T02:57:04.522Z,83
2018-07-21T02:58:03.929Z,83
2018-07-21T02:59:03.900Z,83
2018-07-21T03:00:04.016Z,83
2018-07-21T03:01:03.882Z,83
2018-07-21T03:02:03.927Z,83
2018-07-21T03:03:03.879Z,83
2018-07-21T03:04:04.562Z,84
2018-07-21T03:05:03.963Z,84
2018-07-21T03:06:03.818Z,84
2018-07-21T03:07:03.885Z,85
2018-07-21T03:08:04.362Z,85
2018-07-21T03:09:03.733Z,85
2018-07-21T03:12:44.804Z,85
2018-07-21T03:12:58.589Z,85
2018-07-21T03:13:58.177Z,85
2018-07-21T03:14:57.996Z,85
2018-07-21T03:15:58.176Z,85
2018-07-21T03:18:58.218Z,85
2018-07-21T03:19:58.175Z,85
2018-07-21T03:20:58.124Z,85
2018-07-21T03:21:58.120Z,85
2018-07-21T03:22:58.209Z,85
2018-07-21T03:23:58.272Z,86
2018-07-21T03:25:00.143Z,86
2018-07-21T03:25:58.770Z,86
2018-07-21T03:27:58.135Z,85
2018-07-21T03:28:58.783Z,84
2018-07-21T03:29:58.726Z,84
2018-07-21T03:30:58.740Z,84
2018-07-21T03:31:58.170Z,84
2018-07-21T03:32:58.274Z,84
2018-07-21T03:33:58.218Z,84
2018-07-21T03:34:59.152Z,84
2018-07-21T03:36:59.481Z,85
2018-07-21T03:37:58.207Z,85
2018-07-21T03:38:58.852Z,85
2018-07-21T03:40:00.068Z,85
2018-07-21T03:40:58.733Z,85
2018-07-21T03:41:58.144Z,85
2018-07-21T03:42:58.153Z,85
2018-07-21T03:43:58.071Z,85
2018-07-21T03:44:58.173Z,85
2018-07-21T03:45:58.675Z,85
2018-07-21T03:46:58.146Z,86
2018-07-21T03:47:58.668Z,86
2018-07-21T03:48:58.023Z,86
2018-07-21T03:50:08.010Z,86
2018-07-21T03:50:58.127Z,86
2018-07-21T03:51:58.087Z,86
2018-07-21T03:52:58.564Z,86
2018-07-21T03:53:57.998Z,86
2018-07-21T03:54:58.183Z,86
2018-07-21T03:55:58.643Z,86
2018-07-21T03:56:58.901Z,86
2018-07-21T03:57:58.634Z,86
2018-07-21T03:58:58.941Z,86
2018-07-21T04:02:03.591Z,86
2018-07-21T04:03:03.507Z,86
2018-07-21T04:04:04.093Z,86
2018-07-21T04:06:03.549Z,86
2018-07-21T04:07:03.553Z,86
2018-07-21T04:08:03.559Z,85
2018-07-21T04:09:03.671Z,85
2018-07-21T04:10:03.471Z,85
2018-07-21T04:11:04.153Z,85
2018-07-21T04:13:16.554Z,85
2018-07-21T04:14:16.383Z,85
2018-07-21T04:15:16.451Z,85
2018-07-21T04:16:16.555Z,85
2018-07-21T04:17:16.502Z,84
2018-07-21T04:18:16.469Z,84
2018-07-21T04:19:17.005Z,84
2018-07-21T04:21:16.527Z,84
2018-07-21T04:22:17.235Z,84
2018-07-21T04:33:04.600Z,84
2018-07-21T04:34:20.296Z,85
2018-07-21T04:35:20.286Z,85
2018-07-21T04:38:20.335Z,84
2018-07-21T04:39:21.005Z,84
2018-07-21T04:40:20.344Z,84
2018-07-21T04:41:20.971Z,84
2018-07-21T04:43:20.297Z,84
2018-07-21T04:44:20.308Z,84
2018-07-21T04:45:20.364Z,85
2018-07-21T04:46:20.338Z,85
2018-07-21T04:48:20.413Z,86
2018-07-21T04:49:20.385Z,86
2018-07-21T04:50:20.298Z,87
2018-07-21T04:53:20.246Z,87
2018-07-21T04:54:20.337Z,87
2018-07-21T04:55:20.327Z,87
2018-07-21T04:56:20.346Z,87
2018-07-21T04:57:20.395Z,87
2018-07-21T04:58:20.417Z,88
2018-07-21T05:00:21.170Z,88
2018-07-21T05:01:48.650Z,88
2018-07-21T05:02:20.440Z,88
2018-07-21T05:03:20.503Z,88
2018-07-21T05:04:20.318Z,88
2018-07-21T05:05:20.384Z,88
2018-07-21T05:06:20.308Z,89
2018-07-21T05:07:20.379Z,89
2018-07-21T05:08:20.461Z,89
2018-07-21T05:09:20.331Z,89
2018-07-21T05:10:20.370Z,89
2018-07-21T05:11:20.946Z,89
2018-07-21T05:13:32.977Z,89
2018-07-21T05:14:33.592Z,89
2018-07-21T05:15:32.988Z,89
2018-07-21T05:16:33.040Z,89
2018-07-21T05:17:33.673Z,89
2018-07-21T05:18:33.094Z,89
2018-07-21T05:19:33.026Z,89
2018-07-21T05:20:33.093Z,89
2018-07-21T05:21:34.279Z,90
2018-07-21T05:23:33.555Z,90
2018-07-21T05:25:32.919Z,90
2018-07-21T05:27:33.067Z,90
2018-07-21T05:30:33.557Z,91
2018-07-21T05:31:33.678Z,91
2018-07-21T05:32:33.492Z,91
2018-07-21T05:33:33.108Z,91
2018-07-21T05:34:35.626Z,91
2018-07-21T05:35:33.105Z,91
2018-07-21T05:36:33.660Z,91
2018-07-21T05:37:33.182Z,91
2018-07-21T05:38:33.051Z,91
2018-07-21T05:39:32.998Z,92
2018-07-21T05:40:33.043Z,92
2018-07-21T05:41:32.991Z,92
2018-07-21T05:42:33.733Z,92
2018-07-21T05:43:33.057Z,92
2018-07-21T05:44:33.026Z,92
2018-07-21T05:45:33.113Z,92
2018-07-21T05:46:33.021Z,92
2018-07-21T05:47:32.921Z,92
2018-07-21T05:48:32.945Z,92
2018-07-21T05:49:32.973Z,92
2018-07-21T05:50:32.862Z,92
2018-07-21T05:51:33.880Z,92
2018-07-21T05:52:34.160Z,92
2018-07-21T05:53:33.091Z,92
2018-07-21T05:54:33.698Z,92
2018-07-21T05:56:32.974Z,92
2018-07-21T05:57:32.874Z,92
2018-07-21T05:58:34.058Z,92
2018-07-21T05:59:35.566Z,92
2018-07-21T06:00:33.593Z,92
2018-07-21T06:01:33.543Z,92
2018-07-21T06:02:33.524Z,92
2018-07-21T06:03:32.775Z,92
2018-07-21T06:04:53.251Z,92
2018-07-21T06:05:37.706Z,92
2018-07-21T06:06:33.652Z,92
2018-07-21T06:07:36.298Z,92
2018-07-21T06:08:33.612Z,92
2018-07-21T06:09:34.079Z,91
2018-07-21T06:10:33.000Z,91
2018-07-21T06:11:33.559Z,91
2018-07-21T06:12:34.105Z,91
2018-07-21T06:13:33.038Z,91
2018-07-21T06:14:32.975Z,91
2018-07-21T06:15:43.517Z,91
2018-07-21T06:16:34.302Z,91
2018-07-21T06:17:33.658Z,91
2018-07-21T06:18:33.130Z,91
2018-07-21T06:19:33.187Z,91
2018-07-21T06:21:32.875Z,91
2018-07-21T06:22:32.941Z,91
2018-07-21T06:23:32.836Z,91
2018-07-21T06:25:33.092Z,91
2018-07-21T06:26:33.038Z,91
2018-07-21T06:27:34.328Z,91
2018-07-21T06:28:33.062Z,91
2018-07-21T06:30:32.930Z,91
2018-07-21T06:31:33.053Z,91
2018-07-21T06:32:33.689Z,91
2018-07-21T06:33:34.311Z,91
2018-07-21T06:35:34.062Z,91
2018-07-21T06:36:33.094Z,91
2018-07-21T06:47:21.708Z,91
2018-07-21T06:47:32.499Z,91
2018-07-21T06:48:32.527Z,90
2018-07-21T06:50:45.941Z,90
2018-07-21T06:51:47.492Z,90
2018-07-21T06:52:31.993Z,90
2018-07-21T06:53:31.953Z,90
2018-07-21T06:54:32.126Z,90
2018-07-21T06:55:32.036Z,90
2018-07-21T06:56:32.110Z,90
2018-07-21T06:57:32.066Z,89
2018-07-21T06:58:32.814Z,89
2018-07-21T07:00:32.069Z,89
2018-07-21T07:01:32.098Z,89
2018-07-21T07:02:32.070Z,89
2018-07-21T07:03:32.237Z,89
2018-07-21T07:04:32.861Z,89
2018-07-21T07:05:32.329Z,89
2018-07-21T07:06:33.256Z,89
2018-07-21T07:08:33.336Z,89
2018-07-21T07:09:32.509Z,89
2018-07-21T07:10:32.547Z,88
2018-07-21T07:11:33.991Z,88
2018-07-21T07:12:32.302Z,88
2018-07-21T07:13:33.157Z,88
2018-07-21T07:16:45.714Z,88
2018-07-21T07:17:45.741Z,88
2018-07-21T07:18:45.079Z,88
2018-07-21T07:19:45.770Z,88
2018-07-21T07:20:45.916Z,87
2018-07-21T07:22:45.241Z,87
2018-07-21T07:23:45.220Z,87
2018-07-21T07:24:45.201Z,87
2018-07-21T07:25:45.398Z,87
2018-07-21T07:26:45.130Z,87
2018-07-21T07:27:45.258Z,87
2018-07-21T07:28:45.122Z,87
2018-07-21T07:29:45.317Z,87
2018-07-21T07:30:45.251Z,87
2018-07-21T07:31:45.076Z,87
2018-07-21T07:32:46.450Z,87
2018-07-21T07:33:45.274Z,87
2018-07-21T07:36:45.185Z,87
2018-07-21T07:37:45.203Z,87
2018-07-21T07:38:45.191Z,87
2018-07-21T07:39:45.139Z,87
2018-07-21T07:41:45.112Z,86
2018-07-21T07:42:45.250Z,86
2018-07-21T07:44:46.358Z,86
2018-07-21T07:45:45.262Z,86
2018-07-21T07:46:45.821Z,86
2018-07-21T07:47:45.726Z,86
2018-07-21T07:48:45.154Z,87
2018-07-21T07:49:46.127Z,87
2018-07-21T07:50:45.047Z,86
2018-07-21T07:52:46.162Z,86
2018-07-21T07:53:45.048Z,85
2018-07-21T07:54:45.206Z,85
2018-07-21T07:55:45.279Z,85
2018-07-21T07:56:45.174Z,86
2018-07-21T07:57:45.270Z,86
2018-07-21T07:59:51.037Z,85
2018-07-21T08:00:46.026Z,85
2018-07-21T08:03:03.824Z,85
2018-07-21T08:04:09.345Z,85
2018-07-21T08:05:45.369Z,85
2018-07-21T08:06:52.541Z,85
2018-07-21T08:07:49.465Z,85
2018-07-21T08:08:46.433Z,84
2018-07-21T08:10:14.976Z,84
2018-07-21T08:10:49.143Z,84
2018-07-21T08:11:57.116Z,85
2018-07-21T08:12:45.316Z,85
2018-07-21T08:14:02.587Z,84
2018-07-21T08:14:50.752Z,84
2018-07-21T08:15:54.388Z,84
2018-07-21T08:16:56.372Z,84
2018-07-21T08:17:54.827Z,84
2018-07-21T08:19:50.057Z,85
2018-07-21T08:21:22.556Z,85
2018-07-21T08:22:04.334Z,85
2018-07-21T08:22:50.311Z,85
2018-07-21T08:23:48.885Z,85
2018-07-21T08:26:54.194Z,85
2018-07-21T08:27:45.820Z,85
2018-07-21T08:28:45.354Z,85
2018-07-21T08:36:24.636Z,84
2018-07-21T08:37:08.108Z,85
2018-07-21T08:38:02.220Z,85
2018-07-21T08:39:00.572Z,85
2018-07-21T08:40:13.595Z,85
2018-07-21T08:41:06.716Z,85
2018-07-21T08:42:18.937Z,85
2018-07-21T08:43:04.465Z,85
2018-07-21T08:45:02.057Z,85
2018-07-21T08:45:59.473Z,85
2018-07-21T08:47:05.443Z,86
2018-07-21T08:48:03.506Z,86
2018-07-21T08:49:59.481Z,86
2018-07-21T08:50:59.331Z,86
2018-07-21T08:51:59.951Z,86
2018-07-21T08:53:00.026Z,86
2018-07-21T08:56:00.039Z,87
2018-07-21T08:57:00.876Z,87
2018-07-21T08:57:59.530Z,87
2018-07-21T08:59:00.376Z,87
2018-07-21T08:59:59.408Z,88
2018-07-21T09:00:59.838Z,88
2018-07-21T09:02:06.493Z,88
2018-07-21T09:03:22.229Z,88
2018-07-21T09:03:59.385Z,88
2018-07-21T09:05:13.154Z,88
2018-07-21T09:06:00.293Z,88
2018-07-21T09:06:59.764Z,88
2018-07-21T09:08:07.369Z,89
2018-07-21T09:09:00.737Z,89
2018-07-21T09:10:00.039Z,89
2018-07-21T09:10:59.941Z,89
2018-07-21T09:12:00.112Z,89
2018-07-21T09:14:00.873Z,90
2018-07-21T09:14:59.382Z,90
2018-07-21T09:15:59.522Z,90
2018-07-21T09:17:00.153Z,90
2018-07-21T09:18:00.989Z,91
2018-07-21T09:18:59.346Z,91
2018-07-21T09:19:59.271Z,91
2018-07-21T09:20:59.530Z,91
2018-07-21T09:22:04.731Z,91
2018-07-21T09:23:00.023Z,91
2018-07-21T09:24:59.238Z,92
2018-07-21T09:26:00.072Z,92
2018-07-21T09:26:59.218Z,92
2018-07-21T09:28:05.035Z,92
2018-07-21T09:29:00.484Z,92
2018-07-21T09:30:01.989Z,92
2018-07-21T09:30:59.413Z,92
2018-07-21T09:32:00.620Z,92
2018-07-21T09:33:00.408Z,92
2018-07-21T09:34:00.911Z,92
2018-07-21T09:35:01.315Z,93
2018-07-21T09:40:58.505Z,93
2018-07-21T09:41:17.195Z,93
2018-07-21T09:42:14.066Z,93
2018-07-21T09:43:27.711Z,93
2018-07-21T09:44:23.623Z,93
2018-07-21T09:45:22.924Z,93
2018-07-21T09:46:23.024Z,93
2018-07-21T09:48:16.760Z,94
2018-07-21T09:50:18.628Z,94
2018-07-21T09:51:46.634Z,94
2018-07-21T09:52:46.584Z,94
2018-07-21T09:53:45.934Z,94
2018-07-21T09:54:46.769Z,94
2018-07-21T09:55:46.040Z,94
2018-07-21T09:56:45.933Z,94
2018-07-21T09:57:46.515Z,94
2018-07-21T09:58:46.791Z,94
2018-07-21T10:00:59.546Z,94
2018-07-21T10:02:00.076Z,94
2018-07-21T10:02:59.940Z,94
2018-07-21T10:03:58.926Z,94
2018-07-21T10:05:59.394Z,94
2018-07-21T10:06:59.671Z,94
2018-07-21T10:07:59.007Z,94
2018-07-21T10:08:58.885Z,94
2018-07-21T10:09:58.925Z,94
2018-07-21T10:10:58.822Z,94
2018-07-21T10:11:59.557Z,94
2018-07-21T10:12:58.843Z,94
2018-07-21T10:13:58.843Z,94
2018-07-21T10:15:03.362Z,94
2018-07-21T10:16:01.245Z,94
2018-07-21T10:16:59.502Z,94
2018-07-21T10:17:58.870Z,94
2018-07-21T10:18:58.951Z,94
2018-07-21T10:19:59.035Z,94
2018-07-21T10:20:58.922Z,94
2018-07-21T10:21:58.919Z,94
2018-07-21T10:22:58.949Z,94
2018-07-21T10:23:58.701Z,94
2018-07-21T10:24:58.774Z,94
2018-07-21T10:26:58.781Z,94
2018-07-21T10:27:58.829Z,94
2018-07-21T10:28:59.235Z,95
2018-07-21T10:29:58.805Z,95
2018-07-21T10:30:58.793Z,95
2018-07-21T10:31:58.840Z,95
2018-07-21T10:32:58.731Z,95
2018-07-21T10:33:59.323Z,95
2018-07-21T10:34:59.451Z,95
2018-07-21T10:36:00.293Z,95
2018-07-21T10:36:59.390Z,95
2018-07-21T10:37:58.745Z,95
2018-07-21T10:38:58.789Z,95
2018-07-21T10:39:58.901Z,95
2018-07-21T10:40:58.625Z,95
2018-07-21T10:42:00.137Z,95
2018-07-21T10:42:58.864Z,95
2018-07-21T10:43:58.908Z,95
2018-07-21T10:45:58.682Z,95
2018-07-21T10:46:58.859Z,95
2018-07-21T10:47:59.001Z,95
2018-07-21T10:48:58.889Z,95
2018-07-21T10:49:58.882Z,95
2018-07-21T10:50:58.681Z,95
2018-07-21T10:51:58.723Z,95
2018-07-21T10:52:58.728Z,95
2018-07-21T10:53:58.776Z,95
2018-07-21T10:54:58.795Z,95
2018-07-21T10:55:58.751Z,95
2018-07-21T10:56:59.311Z,95
2018-07-21T10:57:58.790Z,95
2018-07-21T10:58:58.694Z,95
2018-07-21T10:59:58.844Z,95
2018-07-21T11:00:58.805Z,95
2018-07-21T11:01:58.784Z,95
2018-07-21T11:02:58.794Z,95
2018-07-21T11:03:58.819Z,95
2018-07-21T11:04:58.793Z,95
2018-07-21T11:07:14.976Z,95
2018-07-21T11:07:58.774Z,95
2018-07-21T11:08:59.379Z,95
2018-07-21T11:09:58.771Z,95
2018-07-21T11:10:58.780Z,95
2018-07-21T11:12:58.798Z,95
2018-07-21T11:13:58.886Z,95
2018-07-21T11:14:58.915Z,95
2018-07-21T11:15:58.762Z,95
2018-07-21T11:19:04.114Z,95
2018-07-21T11:20:05.509Z,95
2018-07-21T11:21:04.248Z,95
2018-07-21T11:22:04.349Z,95
2018-07-21T11:23:04.266Z,95
2018-07-21T11:24:04.141Z,95
2018-07-21T11:25:05.232Z,95
2018-07-21T11:27:04.254Z,95
2018-07-21T11:28:04.414Z,95
2018-07-21T11:30:17.338Z,95
2018-07-21T11:31:17.368Z,95
2018-07-21T11:32:17.373Z,95
2018-07-21T11:33:17.291Z,95
2018-07-21T11:34:17.236Z,95
2018-07-21T11:35:17.290Z,95
2018-07-21T11:36:17.447Z,95
2018-07-21T11:38:17.273Z,95
2018-07-21T11:39:17.459Z,95
2018-07-21T11:40:18.233Z,94
2018-07-21T11:41:17.330Z,94
2018-07-21T11:42:17.276Z,94
2018-07-21T11:43:17.322Z,94
2018-07-21T11:45:17.301Z,94
2018-07-21T11:46:17.379Z,94
2018-07-21T11:47:17.373Z,94
2018-07-21T11:48:17.455Z,94
2018-07-21T11:49:17.262Z,94
2018-07-21T11:50:33.612Z,94
2018-07-21T11:51:17.285Z,94
2018-07-21T11:52:17.279Z,94
2018-07-21T11:53:17.460Z,94
2018-07-21T11:54:17.248Z,94
2018-07-21T11:55:17.335Z,94
2018-07-21T11:56:17.288Z,94
2018-07-21T11:57:17.351Z,94
2018-07-21T11:58:17.287Z,94
2018-07-21T11:59:17.983Z,94
2018-07-21T12:01:10.938Z,93
2018-07-21T12:01:23.372Z,93
2018-07-21T12:02:23.414Z,93
2018-07-21T12:03:22.827Z,93
2018-07-21T12:04:22.276Z,93
2018-07-21T12:05:22.605Z,93
2018-07-21T12:06:22.788Z,93
2018-07-21T12:07:22.092Z,93
2018-07-21T12:08:23.491Z,93
2018-07-21T12:09:22.312Z,93
2018-07-21T12:10:22.184Z,92
2018-07-21T12:11:22.141Z,92
2018-07-21T12:12:22.117Z,92
2018-07-21T12:13:22.156Z,92
2018-07-21T12:14:22.137Z,92
2018-07-21T12:15:23.032Z,92
2018-07-21T12:16:23.753Z,92
2018-07-21T12:17:22.197Z,92
2018-07-21T12:18:22.236Z,92
2018-07-21T12:19:22.118Z,92
2018-07-21T12:20:22.196Z,92
2018-07-21T12:21:22.152Z,92
2018-07-21T12:23:22.173Z,91
2018-07-21T12:24:22.151Z,91
2018-07-21T12:25:22.187Z,91
2018-07-21T12:26:23.447Z,91
2018-07-21T12:35:33.610Z,91
2018-07-21T12:35:50.260Z,91
2018-07-21T12:36:49.770Z,92
2018-07-21T12:37:50.556Z,92
2018-07-21T12:38:52.494Z,92
2018-07-21T12:41:49.181Z,92
2018-07-21T12:42:49.925Z,92
2018-07-21T12:44:49.401Z,93
2018-07-21T12:46:50.236Z,93
2018-07-21T12:47:50.130Z,93
2018-07-21T12:48:57.567Z,93
2018-07-21T12:49:51.362Z,93
2018-07-21T12:51:50.349Z,93
2018-07-21T12:52:54.057Z,93
2018-07-21T12:53:49.238Z,94
2018-07-21T12:54:49.204Z,94
2018-07-21T12:55:49.171Z,94
2018-07-21T12:56:49.156Z,94
2018-07-21T12:57:49.168Z,94
2018-07-21T12:59:49.156Z,94
2018-07-21T13:00:49.814Z,94
2018-07-21T13:01:49.153Z,94
2018-07-21T13:02:50.121Z,94
2018-07-21T13:03:49.241Z,94
2018-07-21T13:04:49.228Z,94
2018-07-21T13:05:49.120Z,94
2018-07-21T13:06:49.931Z,94
2018-07-21T13:07:50.976Z,94
2018-07-21T13:08:49.138Z,94
2018-07-21T13:10:49.054Z,94
2018-07-21T13:11:49.138Z,94
2018-07-21T13:12:59.264Z,94
2018-07-21T13:13:49.687Z,94
2018-07-21T13:14:49.137Z,94
2018-07-21T13:15:49.677Z,94
2018-07-21T13:16:49.219Z,94
2018-07-21T13:17:49.600Z,94
2018-07-21T13:19:49.191Z,94
2018-07-21T13:20:50.396Z,94
2018-07-21T13:21:49.204Z,94
2018-07-21T13:22:51.449Z,94
2018-07-21T13:23:49.775Z,94
2018-07-21T13:24:49.178Z,94
2018-07-21T13:25:49.119Z,94
2018-07-21T13:26:49.204Z,94
2018-07-21T13:27:49.104Z,94
2018-07-21T13:28:49.185Z,94
2018-07-21T13:29:49.168Z,94
2018-07-21T13:30:49.234Z,94
2018-07-21T13:31:49.191Z,94
2018-07-21T13:32:50.527Z,94
2018-07-21T13:34:49.154Z,94
2018-07-21T13:35:49.129Z,94
2018-07-21T13:36:49.127Z,94
2018-07-21T13:37:49.221Z,94
2018-07-21T13:38:49.931Z,94
2018-07-21T13:39:49.188Z,94
2018-07-21T13:40:49.137Z,94
2018-07-21T13:41:50.457Z,94
2018-07-21T13:43:03.222Z,94
2018-07-21T13:43:49.243Z,94
2018-07-21T13:44:49.311Z,93
2018-07-21T13:46:49.200Z,93
2018-07-21T13:47:49.277Z,93
2018-07-21T13:48:49.149Z,93
2018-07-21T13:49:49.263Z,93
2018-07-21T13:50:49.263Z,93
2018-07-21T13:51:49.851Z,93
2018-07-21T13:52:51.263Z,93
2018-07-21T13:53:49.213Z,93
2018-07-21T13:54:49.712Z,93
2018-07-21T13:55:50.368Z,93
2018-07-21T13:56:49.227Z,93
2018-07-21T13:57:49.246Z,93
2018-07-21T13:58:49.376Z,93
2018-07-21T13:59:49.272Z,93
2018-07-21T14:00:49.269Z,93
2018-07-21T14:01:49.236Z,93
2018-07-21T14:03:53.229Z,93
2018-07-21T14:04:49.199Z,92
2018-07-21T14:05:49.243Z,92
2018-07-21T14:07:49.237Z,92
2018-07-21T14:08:49.153Z,92
2018-07-21T14:10:49.426Z,92
2018-07-21T14:12:49.253Z,92
2018-07-21T14:13:49.257Z,92
2018-07-21T14:14:49.404Z,92
2018-07-21T14:15:49.428Z,92
2018-07-21T14:16:49.398Z,92
2018-07-21T14:17:49.182Z,92
2018-07-21T14:18:49.341Z,92
2018-07-21T14:19:49.161Z,92
2018-07-21T14:20:49.321Z,92
2018-07-21T14:21:49.767Z,92
2018-07-21T14:22:49.773Z,92
2018-07-21T14:23:49.268Z,92
2018-07-21T14:24:49.435Z,92
2018-07-21T14:25:49.376Z,92
2018-07-21T14:26:49.368Z,92
2018-07-21T14:27:50.202Z,92
2018-07-21T14:28:49.163Z,92
2018-07-21T14:29:49.317Z,92
2018-07-21T14:30:49.221Z,92
2018-07-21T14:31:50.657Z,92
2018-07-21T14:32:49.258Z,92
2018-07-21T14:33:49.284Z,92
2018-07-21T14:34:49.262Z,92
2018-07-21T14:36:49.825Z,92
2018-07-21T14:37:49.326Z,92
2018-07-21T14:38:50.809Z,92
2018-07-21T14:39:49.233Z,92
2018-07-21T14:40:49.258Z,92
2018-07-21T14:59:39.654Z,91
2018-07-21T15:00:38.980Z,90
2018-07-21T15:02:39.097Z,90
2018-07-21T15:03:38.994Z,90
2018-07-21T15:04:38.985Z,90
2018-07-21T15:06:40.241Z,90
2018-07-21T15:07:39.000Z,90
2018-07-21T15:08:39.058Z,90
2018-07-21T15:10:32.094Z,90
2018-07-21T15:10:46.541Z,90
2018-07-21T15:11:48.161Z,90
2018-07-21T15:12:47.575Z,90
2018-07-21T15:13:48.382Z,90
2018-07-21T15:14:47.651Z,90
2018-07-21T15:16:49.404Z,90
2018-07-21T15:18:48.204Z,89
2018-07-21T15:19:48.365Z,89
2018-07-21T15:23:00.835Z,89
2018-07-21T15:25:01.707Z,88
2018-07-21T15:26:01.083Z,88
2018-07-21T15:28:00.926Z,88
2018-07-21T15:29:01.069Z,87
2018-07-21T15:31:02.195Z,88
2018-07-21T15:40:20.185Z,88
2018-07-21T15:41:21.122Z,88
2018-07-21T15:42:20.000Z,88
2018-07-21T15:43:21.133Z,88
2018-07-21T15:44:19.332Z,87
2018-07-21T15:45:20.445Z,87
2018-07-21T15:46:20.289Z,85
2018-07-21T15:47:22.829Z,85
2018-07-21T15:48:19.245Z,85
2018-07-21T15:49:19.636Z,83
2018-07-21T15:50:19.305Z,83
2018-07-21T15:51:20.563Z,83
2018-07-21T15:52:20.354Z,83
2018-07-21T15:53:19.391Z,83
2018-07-21T15:54:19.353Z,84
2018-07-21T15:55:19.338Z,84
2018-07-21T15:57:19.256Z,86
2018-07-21T15:59:21.422Z,85
2018-07-21T16:00:19.446Z,85
2018-07-21T16:01:19.523Z,85
2018-07-21T16:02:19.945Z,85
2018-07-21T16:03:19.853Z,85
2018-07-21T16:04:19.453Z,85
2018-07-21T16:05:20.422Z,85
2018-07-21T16:06:19.392Z,85
2018-07-21T16:07:19.994Z,84
2018-07-21T16:08:20.069Z,84
2018-07-21T16:09:19.355Z,85
2018-07-21T16:10:19.332Z,85
2018-07-21T16:12:19.390Z,84
2018-07-21T16:13:20.035Z,84
2018-07-21T16:14:19.336Z,85
2018-07-21T16:15:20.692Z,85
2018-07-21T16:16:20.089Z,85
2018-07-21T16:17:19.495Z,85
2018-07-21T16:19:19.572Z,85
2018-07-21T16:20:19.419Z,85
2018-07-21T16:21:20.033Z,85
2018-07-21T16:22:19.621Z,84
2018-07-21T16:23:21.021Z,84
2018-07-21T16:25:19.408Z,84
2018-07-21T16:26:19.502Z,84
2018-07-21T16:28:20.092Z,85
2018-07-21T16:30:19.422Z,85
2018-07-21T16:31:19.375Z,85
2018-07-21T16:33:19.486Z,85
2018-07-21T16:34:19.379Z,85
2018-07-21T16:35:20.609Z,85
2018-07-21T16:36:19.832Z,85
2018-07-21T16:39:00.291Z,85
2018-07-21T16:39:10.653Z,85
2018-07-21T16:42:11.770Z,85
2018-07-21T16:43:11.424Z,85
2018-07-21T16:44:11.296Z,85
2018-07-21T16:45:11.925Z,85
2018-07-21T16:47:10.685Z,85
2018-07-21T16:48:12.184Z,85
2018-07-21T16:49:11.388Z,85
2018-07-21T16:52:10.644Z,86
2018-07-21T16:54:11.289Z,86
2018-07-21T16:55:11.295Z,86
2018-07-21T16:56:11.922Z,86
2018-07-21T16:58:10.727Z,87
2018-07-21T16:59:10.714Z,87
2018-07-21T17:01:11.259Z,88
2018-07-21T17:02:11.786Z,88
2018-07-21T17:03:11.269Z,89
2018-07-21T17:04:11.335Z,89
2018-07-21T17:05:12.446Z,90
2018-07-21T17:07:10.706Z,90
2018-07-21T17:09:10.728Z,90
2018-07-21T17:11:10.647Z,90
2018-07-21T17:13:10.741Z,90
2018-07-21T17:14:11.939Z,90
2018-07-21T17:15:14.635Z,91
2018-07-21T17:18:10.673Z,91
2018-07-21T17:19:10.667Z,91
2018-07-21T17:20:11.335Z,92
2018-07-21T17:21:10.871Z,92
2018-07-21T17:24:10.687Z,92
2018-07-21T17:25:17.363Z,92
2018-07-21T17:26:15.883Z,92
2018-07-21T17:29:25.362Z,92
2018-07-21T17:30:20.527Z,92
2018-07-21T17:31:11.560Z,93
2018-07-21T17:32:11.384Z,93
2018-07-21T17:34:10.918Z,93
2018-07-21T17:35:11.903Z,93
2018-07-21T17:36:10.890Z,93
2018-07-21T17:37:12.158Z,93
2018-07-21T17:39:40.010Z,93
2018-07-21T17:40:40.302Z,93
2018-07-21T17:41:22.608Z,94
2018-07-21T17:44:02.024Z,94
2018-07-21T17:46:37.812Z,94
2018-07-21T17:47:54.843Z,94
2018-07-21T17:48:20.821Z,94
2018-07-21T17:49:12.829Z,94
2018-07-21T17:50:36.533Z,94
2018-07-21T17:51:07.228Z,94
2018-07-21T17:52:07.794Z,94
2018-07-21T17:55:06.544Z,94
2018-07-21T17:56:06.541Z,94
2018-07-21T17:57:06.535Z,94
2018-07-21T17:58:06.772Z,94
2018-07-21T18:00:16.627Z,94
2018-07-21T18:01:06.676Z,94
2018-07-21T18:02:06.796Z,94
2018-07-21T18:03:06.819Z,94
2018-07-21T18:04:06.723Z,94
2018-07-21T18:05:07.340Z,94
2018-07-21T18:06:07.679Z,94
2018-07-21T18:11:06.685Z,94
2018-07-21T18:13:06.544Z,94
2018-07-21T18:14:06.623Z,95